Time;durP1;ratioP1;P1;durP2;ratioP2;P2;SDS_P1;SDS_P2;PMS_P1;PMS_P2;Temp;Humidity;BMP_temperature;BMP_pressure;BME280_temperature;BME280_humidity;BME280_pressure;Samples;Min_cycle;Max_cycle;Signal;HPM_P1;HPM_P2
2022/09/15 00:01:31;;;;;;;19.95;10.88;;;;;;;12.20;100.00;100566.84;5136802;27;20027;-83
2022/09/15 00:03:56;;;;;;;28.17;12.20;;;;;;;12.20;100.00;100569.56;5137147;27;20030;-83
2022/09/15 00:06:22;;;;;;;22.77;10.97;;;;;;;12.22;100.00;100573.72;5119938;27;20272;-83
2022/09/15 00:08:47;;;;;;;21.87;11.50;;;;;;;12.19;100.00;100571.44;5136817;27;20023;-83
2022/09/15 00:11:21;;;;;;;25.70;12.57;;;;;;;12.21;100.00;100577.50;5136861;27;20470;-83
2022/09/15 00:13:47;;;;;;;21.38;12.23;;;;;;;12.22;100.00;100559.28;5137314;27;20186;-83
2022/09/15 00:16:14;;;;;;;24.27;12.13;;;;;;;12.20;100.00;100572.28;5136842;27;20063;-83
2022/09/15 00:18:40;;;;;;;26.48;11.70;;;;;;;12.16;100.00;100569.19;5119849;27;20486;-83
2022/09/15 00:21:09;;;;;;;24.02;12.15;;;;;;;12.14;100.00;100570.50;5136375;27;20123;-83
2022/09/15 00:23:35;;;;;;;28.55;12.75;;;;;;;12.14;100.00;100576.75;5136776;27;20035;-83
2022/09/15 00:26:04;;;;;;;24.95;13.38;;;;;;;12.15;100.00;100573.00;5136644;27;20394;-83
2022/09/15 00:28:31;;;;;;;22.50;12.60;;;;;;;12.14;100.00;100568.59;5119602;27;20554;-83
2022/09/15 00:30:56;;;;;;;26.08;13.57;;;;;;;12.14;100.00;100562.34;5137176;27;20019;-83
2022/09/15 00:33:22;;;;;;;26.13;13.00;;;;;;;12.13;100.00;100558.78;5119788;27;20537;-83
2022/09/15 00:35:49;;;;;;;26.23;13.77;;;;;;;12.15;100.00;100562.13;5155335;27;20076;-82
2022/09/15 00:38:17;;;;;;;26.90;14.68;;;;;;;12.20;100.00;100545.09;5139232;27;20034;-83
2022/09/15 00:40:48;;;;;;;28.25;14.30;;;;;;;12.24;100.00;100549.81;5140959;27;20023;-83
2022/09/15 00:43:16;;;;;;;27.27;14.33;;;;;;;12.32;100.00;100558.72;5141213;27;20492;-83
2022/09/15 00:45:41;;;;;;;25.55;13.15;;;;;;;12.37;100.00;100558.81;5140622;27;20084;-83
2022/09/15 00:48:12;;;;;;;26.38;13.65;;;;;;;12.38;100.00;100550.44;5140835;27;20027;-83
2022/09/15 00:50:39;;;;;;;23.83;13.33;;;;;;;12.42;100.00;100554.34;5140889;27;20019;-83
2022/09/15 00:53:08;;;;;;;24.60;13.98;;;;;;;12.45;100.00;100562.03;5140960;27;20113;-83
2022/09/15 00:55:41;;;;;;;25.80;13.32;;;;;;;12.45;100.00;100558.50;5123460;27;20073;-82
2022/09/15 00:58:10;;;;;;;29.58;14.27;;;;;;;12.45;100.00;100558.50;5140365;27;20037;-83
2022/09/15 01:00:39;;;;;;;24.13;13.40;;;;;;;12.48;100.00;100562.63;5140670;27;20083;-83
2022/09/15 01:03:05;;;;;;;23.60;13.80;;;;;;;12.51;100.00;100554.81;5140289;27;20405;-83
2022/09/15 01:05:37;;;;;;;26.60;13.35;;;;;;;12.57;100.00;100561.22;5123371;27;20466;-83
2022/09/15 01:08:10;;;;;;;24.15;13.70;;;;;;;12.58;100.00;100563.72;5140480;27;20158;-83
2022/09/15 01:10:37;;;;;;;30.20;14.23;;;;;;;12.56;100.00;100557.69;5140619;27;20022;-83
2022/09/15 01:13:09;;;;;;;31.10;14.57;;;;;;;12.57;100.00;100559.31;5122967;27;20046;-83
2022/09/15 01:16:00;;;;;;;24.05;13.98;;;;;;;12.59;100.00;100557.22;5140269;27;20113;-83
2022/09/15 01:18:37;;;;;;;31.67;14.90;;;;;;;12.63;100.00;100563.00;5140636;27;20042;-83
2022/09/15 01:21:41;;;;;;;26.02;14.70;;;;;;;12.66;100.00;100559.81;5139847;27;20098;-83
2022/09/15 01:24:44;;;;;;;25.53;14.70;;;;;;;12.70;100.00;100555.53;5135720;27;20417;-83
2022/09/15 01:27:21;;;;;;;25.08;13.55;;;;;;;12.73;100.00;100548.81;5139326;27;20019;-83
2022/09/15 01:29:53;;;;;;;26.60;14.40;;;;;;;12.77;100.00;100555.41;5140186;27;20034;-83
2022/09/15 01:35:30;;;;;;;23.95;13.52;;;;;;;12.80;100.00;100554.97;5159053;27;20091;-83
2022/09/15 01:38:21;;;;;;;28.57;13.90;;;;;;;12.80;100.00;100558.50;5140077;27;20031;-83
2022/09/15 01:41:10;;;;;;;23.45;13.43;;;;;;;12.79;100.00;100553.28;5158127;27;20118;-83
2022/09/15 01:44:10;;;;;;;26.17;13.85;;;;;;;12.75;100.00;100555.66;5139758;27;20035;-83
2022/09/15 01:46:46;;;;;;;24.13;13.73;;;;;;;12.70;100.00;100555.53;5121536;27;20061;-83
2022/09/15 01:49:21;;;;;;;28.85;14.07;;;;;;;12.63;100.00;100558.38;5157488;27;20023;-83
2022/09/15 01:51:50;;;;;;;24.87;13.97;;;;;;;12.58;100.00;100560.16;5158282;27;20109;-83
2022/09/15 01:54:20;;;;;;;26.58;14.00;;;;;;;12.49;100.00;100556.13;5139617;27;20026;-83
2022/09/15 01:56:45;;;;;;;24.90;13.98;;;;;;;12.46;100.00;100554.72;5158292;27;20125;-83
2022/09/15 01:59:11;;;;;;;23.63;14.67;;;;;;;12.42;100.00;100556.25;5139333;27;20122;-83
2022/09/15 02:01:48;;;;;;;24.97;13.87;;;;;;;12.34;100.00;100551.97;5139260;27;20031;-83
2022/09/15 02:04:27;;;;;;;27.40;14.77;;;;;;;12.31;100.00;100555.13;5139698;27;20382;-83
2022/09/15 02:07:05;;;;;;;25.40;14.05;;;;;;;12.34;100.00;100560.13;5157697;27;20027;-83
2022/09/15 02:09:43;;;;;;;27.23;15.10;;;;;;;12.36;100.00;100554.47;5139454;27;20367;-83
2022/09/15 02:12:22;;;;;;;27.05;15.45;;;;;;;12.40;100.00;100559.19;5157660;27;20031;-83
2022/09/15 02:14:55;;;;;;;24.60;15.00;;;;;;;12.46;100.00;100552.00;5157851;27;20031;-83
2022/09/15 02:17:26;;;;;;;27.42;14.98;;;;;;;12.50;100.00;100553.16;5139367;27;20026;-83
2022/09/15 02:19:56;;;;;;;27.95;15.25;;;;;;;12.53;100.00;100549.97;5139284;27;20055;-83
2022/09/15 02:22:29;;;;;;;28.83;14.60;;;;;;;12.53;100.00;100546.41;5138783;27;20126;-83
2022/09/15 02:25:08;;;;;;;25.25;14.68;;;;;;;12.52;100.00;100551.03;5139313;27;20046;-83
2022/09/15 02:27:39;;;;;;;30.90;14.60;;;;;;;12.49;100.00;100556.13;5138914;27;20023;-83
2022/09/15 02:30:11;;;;;;;22.98;14.38;;;;;;;12.45;100.00;100545.72;5138958;27;20047;-83
2022/09/15 02:32:46;;;;;;;24.05;14.32;;;;;;;12.41;100.00;100549.94;5138793;27;20015;-83
2022/09/15 02:35:13;;;;;;;25.98;15.52;;;;;;;12.41;100.00;100554.56;5139291;27;20061;-83
2022/09/15 02:37:39;;;;;;;31.42;15.55;;;;;;;12.37;100.00;100545.22;5138771;27;20027;-83
2022/09/15 02:40:06;;;;;;;28.67;14.77;;;;;;;12.34;100.00;100548.41;5121358;27;20034;-83
2022/09/15 02:42:32;;;;;;;26.73;14.95;;;;;;;12.29;100.00;100549.94;5138397;27;20027;-83
2022/09/15 02:44:59;;;;;;;31.15;15.38;;;;;;;12.23;100.00;100547.34;5138511;27;20125;-83
2022/09/15 02:47:27;;;;;;;21.08;13.60;;;;;;;12.21;100.00;100552.16;5138301;27;20031;-83
2022/09/15 02:49:53;;;;;;;25.97;15.10;;;;;;;12.22;100.00;100551.97;5139178;27;20106;-83
2022/09/15 02:52:18;;;;;;;28.25;15.50;;;;;;;12.15;100.00;100553.94;5121437;27;20195;-82
2022/09/15 02:54:43;;;;;;;29.70;15.03;;;;;;;12.13;100.00;100561.50;5138268;27;20382;-84
2022/09/15 02:57:09;;;;;;;27.83;15.37;;;;;;;12.09;100.00;100555.72;5121035;27;20037;-83
2022/09/15 03:02:19;;;;;;;28.70;16.37;;;;;;;11.98;100.00;100561.94;5125669;27;20095;-83
2022/09/15 03:04:48;;;;;;;25.02;16.00;;;;;;;11.95;100.00;100564.28;5120877;27;20113;-83
2022/09/15 03:07:15;;;;;;;32.78;16.88;;;;;;;11.92;100.00;100560.13;5138178;27;20110;-83
2022/09/15 03:09:42;;;;;;;31.88;16.98;;;;;;;11.87;100.00;100570.84;5138456;27;20474;-83
2022/09/15 03:12:08;;;;;;;32.05;17.23;;;;;;;11.84;100.00;100569.44;5121018;27;20144;-84
2022/09/15 03:14:34;;;;;;;27.10;16.30;;;;;;;11.79;100.00;100560.31;5156517;27;20556;-83
2022/09/15 03:17:00;;;;;;;33.30;17.63;;;;;;;11.76;100.00;100562.41;5138233;27;20486;-83
2022/09/15 03:19:25;;;;;;;34.97;17.03;;;;;;;11.75;100.00;100568.91;5120927;27;20039;-83
2022/09/15 03:21:51;;;;;;;30.52;16.77;;;;;;;11.72;100.00;100572.09;5133987;27;20042;-82
2022/09/15 03:24:18;;;;;;;32.60;18.23;;;;;;;11.73;100.00;100571.03;5117282;27;20509;-83
2022/09/15 03:26:44;;;;;;;35.65;17.63;;;;;;;11.72;100.00;100576.69;5134294;27;20019;-83
2022/09/15 03:29:10;;;;;;;30.65;17.33;;;;;;;11.73;100.00;100573.75;5133092;27;20054;-83
2022/09/15 03:31:35;;;;;;;30.20;17.23;;;;;;;11.76;100.00;100580.59;5134326;27;20063;-83
2022/09/15 03:34:00;;;;;;;30.57;17.50;;;;;;;11.80;100.00;100581.00;5134129;27;20390;-84
2022/09/15 03:36:26;;;;;;;34.10;18.63;;;;;;;11.84;100.00;100588.47;5133814;27;20363;-82
2022/09/15 03:38:51;;;;;;;37.10;17.95;;;;;;;11.91;100.00;100591.91;5134084;27;20394;-83
2022/09/15 03:41:17;;;;;;;36.60;19.33;;;;;;;11.94;100.00;100587.91;5116704;27;20512;-83
2022/09/15 03:43:43;;;;;;;30.77;17.35;;;;;;;11.98;100.00;100591.84;5133801;27;20034;-83
2022/09/15 03:46:10;;;;;;;30.87;17.53;;;;;;;11.98;100.00;100593.75;5134193;27;20084;-83
2022/09/15 03:48:36;;;;;;;30.48;17.05;;;;;;;11.99;100.00;100588.06;5133819;27;20038;-83
2022/09/15 03:51:07;;;;;;;30.77;17.48;;;;;;;11.99;100.00;100590.78;5133976;27;20023;-83
2022/09/15 03:53:34;;;;;;;34.03;17.70;;;;;;;11.98;100.00;100586.41;5133587;27;20027;-83
2022/09/15 03:56:38;;;;;;;33.83;17.17;;;;;;;11.98;100.00;100588.31;5133673;27;20038;-83
2022/09/15 03:59:04;;;;;;;27.58;16.40;;;;;;;11.93;100.00;100589.81;5037817;28;20603;-83
2022/09/15 04:01:31;;;;;;;33.90;16.52;;;;;;;11.91;100.00;100583.75;5038086;28;20043;-83
2022/09/15 04:03:57;;;;;;;28.15;16.60;;;;;;;11.95;100.00;100583.31;5090392;27;20069;-83
2022/09/15 04:06:23;;;;;;;30.65;16.45;;;;;;;11.97;100.00;100590.16;5133677;27;20031;-83
2022/09/15 04:08:53;;;;;;;32.07;17.50;;;;;;;11.96;100.00;100591.25;5134628;27;20038;-83
2022/09/15 04:11:20;;;;;;;34.10;18.05;;;;;;;11.98;100.00;100589.13;5133636;27;20536;-83
2022/09/15 04:13:46;;;;;;;28.95;16.92;;;;;;;11.94;100.00;100577.03;5133530;27;20118;-83
2022/09/15 04:16:15;;;;;;;30.20;16.77;;;;;;;11.91;100.00;100582.91;5133438;27;20033;-83
2022/09/15 04:18:40;;;;;;;25.73;15.88;;;;;;;11.90;100.00;100589.44;5133299;27;20046;-83
2022/09/15 04:21:10;;;;;;;26.70;15.83;;;;;;;11.88;100.00;100580.66;5132799;27;20506;-83
2022/09/15 04:23:37;;;;;;;27.27;16.67;;;;;;;11.88;100.00;100583.38;5134762;27;20047;-83
2022/09/15 04:26:08;;;;;;;28.70;17.30;;;;;;;11.90;100.00;100592.16;5116204;28;20446;-82
2022/09/15 04:28:36;;;;;;;26.63;16.00;;;;;;;11.93;100.00;100581.66;5132934;28;20491;-83
2022/09/15 04:31:10;;;;;;;33.85;17.33;;;;;;;11.98;100.00;100588.31;5133201;28;20023;-82
2022/09/15 04:33:36;;;;;;;34.80;16.80;;;;;;;12.02;100.00;100594.94;5133045;28;20114;-82
2022/09/15 04:36:05;;;;;;;31.25;16.42;;;;;;;12.03;100.00;100586.56;5133081;28;20035;-83
2022/09/15 04:38:31;;;;;;;26.57;16.50;;;;;;;12.07;100.00;100584.19;5133008;28;20026;-83
2022/09/15 04:40:57;;;;;;;32.55;17.05;;;;;;;12.08;100.00;100583.94;5133140;28;20023;-83
2022/09/15 04:43:26;;;;;;;24.95;15.77;;;;;;;12.13;100.00;100585.16;5133655;28;20031;-83
2022/09/15 04:45:52;;;;;;;25.13;15.80;;;;;;;12.16;100.00;100588.22;5132879;28;20024;-83
2022/09/15 04:48:18;;;;;;;26.77;16.23;;;;;;;12.19;100.00;100585.03;5116004;28;20075;-83
2022/09/15 04:50:43;;;;;;;25.40;16.08;;;;;;;12.23;100.00;100588.13;5132723;28;20382;-83
2022/09/15 04:53:09;;;;;;;26.77;16.20;;;;;;;12.26;100.00;100595.84;5133184;28;20017;-83
2022/09/15 04:55:37;;;;;;;21.87;15.13;;;;;;;12.27;100.00;100595.59;5132863;28;20038;-83
2022/09/15 04:58:03;;;;;;;22.90;15.68;;;;;;;12.28;100.00;100599.13;5132420;28;20031;-82
2022/09/15 05:00:29;;;;;;;26.67;15.70;;;;;;;12.29;100.00;100598.91;5132819;28;20032;-83
2022/09/15 05:02:55;;;;;;;24.42;15.15;;;;;;;12.28;100.00;100594.53;5134136;27;20034;-84
2022/09/15 05:05:24;;;;;;;27.57;14.87;;;;;;;12.28;100.00;100594.53;5133076;28;20374;-83
2022/09/15 05:07:49;;;;;;;24.83;15.30;;;;;;;12.28;100.00;100589.09;5133170;28;20031;-82
2022/09/15 05:10:15;;;;;;;20.40;15.10;;;;;;;12.32;100.00;100585.91;5132733;28;20188;-83
2022/09/15 05:12:40;;;;;;;26.65;15.07;;;;;;;12.32;100.00;100586.72;5115885;28;20111;-83
2022/09/15 05:15:06;;;;;;;24.10;15.10;;;;;;;12.32;100.00;100580.47;5132966;28;20466;-83
2022/09/15 05:17:32;;;;;;;26.77;16.20;;;;;;;12.33;100.00;100579.38;5132710;28;20033;-83
2022/09/15 05:19:59;;;;;;;31.00;16.52;;;;;;;12.32;100.00;100573.13;5132791;28;20436;-82
2022/09/15 05:22:25;;;;;;;24.90;16.07;;;;;;;12.36;100.00;100576.22;5132651;28;20126;-83
2022/09/15 05:24:54;;;;;;;22.05;15.70;;;;;;;12.37;100.00;100575.16;5134762;27;20035;-83
2022/09/15 05:27:19;;;;;;;25.17;15.52;;;;;;;12.43;100.00;100585.94;5119086;27;20080;-83
2022/09/15 05:29:45;;;;;;;25.57;15.80;;;;;;;12.48;100.00;100589.84;5136626;27;20031;-83
2022/09/15 05:32:10;;;;;;;29.85;16.02;;;;;;;12.52;100.00;100583.69;5136146;27;20085;-83
2022/09/15 05:34:36;;;;;;;23.47;15.67;;;;;;;12.53;100.00;100589.97;5136538;27;20023;-83
2022/09/15 05:37:02;;;;;;;24.67;15.80;;;;;;;12.57;100.00;100593.88;5119574;27;20058;-83
2022/09/15 05:39:28;;;;;;;23.40;14.97;;;;;;;12.64;100.00;100592.69;5136114;27;20076;-84
2022/09/15 05:41:54;;;;;;;27.38;15.50;;;;;;;12.68;100.00;100597.66;5136139;27;20031;-86
2022/09/15 05:44:20;;;;;;;25.42;14.98;;;;;;;12.72;100.00;100601.59;5136621;27;20027;-86
2022/09/15 05:46:48;;;;;;;23.33;14.50;;;;;;;12.74;100.00;100604.88;5136027;27;20031;-87
2022/09/15 05:49:16;;;;;;;26.05;14.50;;;;;;;12.80;100.00;100603.97;5136118;27;20037;-87
2022/09/15 05:51:41;;;;;;;27.13;15.05;;;;;;;12.83;100.00;100608.94;5136527;27;20034;-87
2022/09/15 05:54:06;;;;;;;20.90;14.40;;;;;;;12.88;100.00;100619.13;5135767;27;20027;-85
2022/09/15 05:56:32;;;;;;;24.97;15.20;;;;;;;12.90;100.00;100616.97;5137411;27;20031;-85
2022/09/15 05:58:57;;;;;;;25.77;14.73;;;;;;;12.92;100.00;100612.97;5118394;27;20474;-85
2022/09/15 06:01:28;;;;;;;25.57;14.63;;;;;;;12.89;100.00;100621.59;5135600;27;20034;-84
2022/09/15 06:03:55;;;;;;;26.38;14.88;;;;;;;12.89;100.00;100618.88;5136094;27;20243;-84
2022/09/15 06:06:24;;;;;;;22.35;14.45;;;;;;;12.93;100.00;100621.94;5135785;27;20034;-83
2022/09/15 06:08:55;;;;;;;24.07;14.00;;;;;;;12.94;100.00;100627.16;5118716;27;20023;-84
2022/09/15 06:11:39;;;;;;;23.33;14.80;;;;;;;13.02;100.00;100628.72;5135503;27;20057;-85
2022/09/15 06:14:04;;;;;;;26.52;14.10;;;;;;;13.08;100.00;100635.09;5135156;27;20023;-81
2022/09/15 06:16:34;;;;;;;24.53;13.57;;;;;;;13.13;100.00;100632.50;5135342;27;20023;-83
2022/09/15 06:19:34;;;;;;;27.95;15.00;;;;;;;13.23;100.00;100643.63;5134949;27;20031;-85
2022/09/15 06:22:07;;;;;;;21.15;13.43;;;;;;;13.30;100.00;100629.84;5065270;27;20046;-91
2022/09/15 06:24:55;;;;;;;24.02;14.65;;;;;;;13.42;100.00;100632.59;5104794;27;20035;-89
2022/09/15 06:27:34;;;;;;;22.43;13.70;;;;;;;13.60;100.00;100637.91;5120530;27;20049;-89
2022/09/15 06:30:02;;;;;;;21.15;14.13;;;;;;;13.59;100.00;100633.50;5135814;27;20100;-89
2022/09/15 06:32:37;;;;;;;20.23;13.45;;;;;;;13.65;100.00;100643.44;5135413;27;20118;-89
2022/09/15 06:35:06;;;;;;;25.85;14.02;;;;;;;13.79;100.00;100651.34;5135428;27;20050;-89
2022/09/15 06:37:35;;;;;;;25.48;14.38;;;;;;;13.84;100.00;100641.38;5136094;27;20087;-90
2022/09/15 06:40:07;;;;;;;19.90;13.20;;;;;;;13.92;100.00;100647.53;5135532;27;20023;-89
2022/09/15 06:42:49;;;;;;;22.60;14.02;;;;;;;13.98;100.00;100644.66;5135505;27;20034;-89
2022/09/15 06:45:20;;;;;;;23.40;13.95;;;;;;;13.95;100.00;100647.03;5135192;27;20055;-89
2022/09/15 06:54:31;;;;;;;;;;;;;;;;;;;;;
2022/09/15 07:00:34;;;;;;;20.35;12.57;;;;;;;14.10;100.00;100663.72;5092983;28;20046;-92
2022/09/15 07:03:00;;;;;;;22.63;13.70;;;;;;;14.16;100.00;100661.91;5093251;28;20410;-85
2022/09/15 07:05:28;;;;;;;18.53;13.10;;;;;;;14.29;100.00;100669.81;5093013;28;20044;-85
2022/09/15 07:08:09;;;;;;;20.67;12.63;;;;;;;14.36;100.00;100675.09;5075692;28;20059;-85
2022/09/15 07:24:34;;;;;;;16.38;10.90;;;;;;;15.18;100.00;100703.00;5036388;28;20587;-85
2022/09/15 07:34:38;;;;;;;19.10;10.57;;;;;;;15.53;100.00;100702.72;5112335;28;20554;-85
2022/09/15 07:55:08;;;;;;;15.05;9.48;;;;;;;15.92;99.67;100712.81;5112065;28;20039;-85
2022/09/15 08:08:26;;;;;;;16.70;9.33;;;;;;;16.19;98.16;100710.13;5129821;27;20035;-85
2022/09/15 08:10:51;;;;;;;15.70;9.00;;;;;;;16.38;96.77;100720.75;5135503;27;20034;-85
2022/09/15 08:13:28;;;;;;;16.73;10.20;;;;;;;16.55;96.17;100724.22;5117226;28;20023;-85
2022/09/15 08:19:27;;;;;;;16.65;9.48;;;;;;;16.77;95.32;100715.94;5134923;27;20034;-85
2022/09/15 08:25:15;;;;;;;14.57;8.80;;;;;;;17.05;92.61;100727.72;5129238;27;20517;-85
2022/09/15 08:38:24;;;;;;;17.67;9.52;;;;;;;17.17;91.73;100749.47;5112847;28;20040;-85
2022/09/15 08:51:45;;;;;;;16.38;9.35;;;;;;;16.91;92.64;100754.72;5112972;28;20035;-85
2022/09/15 08:58:15;;;;;;;12.70;9.10;;;;;;;16.72;92.59;100759.69;5113911;28;20042;-85
2022/09/15 09:04:43;;;;;;;13.20;7.63;;;;;;;17.15;92.01;100766.13;5118032;28;20042;-85
2022/09/15 09:14:26;;;;;;;12.75;6.68;;;;;;;17.53;89.57;100777.13;5116103;28;20038;-85
2022/09/15 09:20:54;;;;;;;18.97;6.67;;;;;;;17.76;87.06;100778.66;5117598;28;20030;-85
2022/09/15 09:27:13;;;;;;;9.40;6.22;;;;;;;18.40;84.25;100780.34;5117331;28;20110;-87
2022/09/15 09:47:39;;;;;;;6.85;3.72;;;;;;;18.47;80.53;100784.75;5116843;28;20038;-85
2022/09/15 09:53:38;;;;;;;8.43;4.07;;;;;;;18.06;78.45;100785.44;5116846;28;20386;-85
2022/09/15 10:13:13;;;;;;;12.02;5.53;;;;;;;16.99;83.44;100784.38;5116452;28;20041;-85
2022/09/15 10:54:06;;;;;;;5.00;1.70;;;;;;;18.00;80.23;100802.97;5032788;28;20091;-85
2022/09/15 11:00:02;;;;;;;10.63;1.70;;;;;;;18.12;78.94;100806.31;5033076;28;20084;-85
2022/09/15 11:06:50;;;;;;;4.65;1.60;;;;;;;18.46;75.32;100786.69;4974584;28;20061;-88
2022/09/15 11:09:49;;;;;;;5.68;1.30;;;;;;;19.01;74.12;100789.03;5029394;28;20040;-88
2022/09/15 11:26:42;;;;;;;3.75;1.40;;;;;;;21.36;66.27;100802.25;4992487;28;20056;-87
2022/09/15 12:34:04;;;;;;;3.87;1.83;;;;;;;31.34;32.49;100752.63;5135834;27;20524;-86
2022/09/15 12:40:32;;;;;;;7.57;1.85;;;;;;;30.08;34.70;100760.94;5134388;28;20034;-87
2022/09/15 12:46:23;;;;;;;5.22;1.90;;;;;;;28.96;35.80;100747.88;5091745;28;20047;-87
2022/09/15 12:49:00;;;;;;;6.60;2.30;;;;;;;29.44;32.60;100751.19;5095779;28;20040;-86
2022/09/15 12:51:32;;;;;;;6.38;2.20;;;;;;;29.17;32.91;100759.03;5134634;28;20035;-87
2022/09/15 12:54:07;;;;;;;4.53;1.95;;;;;;;30.03;32.77;100747.19;5115088;28;20038;-87
2022/09/15 12:56:36;;;;;;;4.80;1.98;;;;;;;29.77;30.28;100749.50;5099262;28;20066;-87
2022/09/15 12:59:29;;;;;;;6.80;1.80;;;;;;;28.51;32.48;100743.81;5115692;28;20037;-86
2022/09/15 13:01:56;;;;;;;5.07;1.90;;;;;;;28.18;33.92;100746.50;5116574;28;20481;-86
2022/09/15 13:07:57;;;;;;;3.28;1.70;;;;;;;27.78;35.36;100742.06;5091351;28;20055;-87
2022/09/15 13:14:14;;;;;;;6.10;1.98;;;;;;;28.65;31.74;100754.72;5091388;28;20039;-86
2022/09/15 13:16:39;;;;;;;3.43;1.90;;;;;;;29.44;27.81;100758.75;5074246;28;20472;-87
2022/09/15 13:19:46;;;;;;;9.27;2.42;;;;;;;32.32;25.69;100753.88;5090813;28;20119;-86
2022/09/15 13:22:20;;;;;;;6.68;2.20;;;;;;;32.84;21.60;100756.63;5074297;28;20068;-87
2022/09/15 13:25:13;;;;;;;4.03;2.00;;;;;;;31.72;25.86;100756.03;5074684;28;20032;-86
2022/09/15 13:27:48;;;;;;;5.10;2.00;;;;;;;30.09;25.95;100754.16;5090598;28;20048;-87
2022/09/15 13:30:22;;;;;;;4.35;2.15;;;;;;;29.29;27.29;100754.66;5073772;28;20032;-86
2022/09/15 13:33:04;;;;;;;2.22;1.73;;;;;;;28.33;28.17;100751.50;5090810;28;20070;-86
2022/09/15 13:36:00;;;;;;;4.53;2.03;;;;;;;28.13;29.69;100755.88;5090412;28;20168;-86
2022/09/15 13:38:58;;;;;;;4.30;2.10;;;;;;;27.78;29.96;100761.59;5098940;28;20083;-86
2022/09/15 13:41:42;;;;;;;5.15;1.83;;;;;;;26.51;29.82;100759.94;5133893;28;20111;-86
2022/09/15 13:44:16;;;;;;;7.50;2.08;;;;;;;25.67;30.16;100764.56;5116074;27;20031;-86
2022/09/15 13:46:51;;;;;;;8.15;1.90;;;;;;;24.59;31.73;100765.28;5119003;27;20035;-86
2022/09/15 13:49:34;;;;;;;4.35;1.40;;;;;;;23.92;33.22;100763.09;5118848;27;20084;-86
2022/09/15 13:52:12;;;;;;;3.90;2.00;;;;;;;23.08;34.59;100773.13;5119830;27;20080;-86
2022/09/15 13:55:09;;;;;;;7.55;1.80;;;;;;;22.69;36.84;100777.88;5119499;27;20031;-86
2022/09/15 13:57:43;;;;;;;2.97;1.30;;;;;;;22.58;36.42;100766.13;5137850;27;20119;-86
2022/09/15 14:00:14;;;;;;;3.65;1.65;;;;;;;22.53;37.22;100757.06;5119832;27;20431;-86
2022/09/15 14:02:51;;;;;;;2.38;1.30;;;;;;;22.63;37.09;100754.16;5119612;27;20457;-86
2022/09/15 14:05:19;;;;;;;7.20;1.30;;;;;;;22.33;37.60;100759.00;5136913;27;20470;-86
2022/09/15 14:07:57;;;;;;;3.97;1.27;;;;;;;22.13;38.10;100757.31;5117958;27;20032;-86
2022/09/15 14:10:31;;;;;;;9.13;1.42;;;;;;;21.88;38.72;100764.78;5118916;27;20050;-86
2022/09/15 14:13:06;;;;;;;2.65;1.20;;;;;;;21.61;39.73;100759.81;5118772;27;20459;-86
2022/09/15 14:15:33;;;;;;;5.32;1.90;;;;;;;21.26;40.72;100753.50;5137551;27;20031;-86
2022/09/15 14:18:01;;;;;;;6.23;2.00;;;;;;;20.94;40.40;100756.81;5118247;27;20551;-86
2022/09/15 14:20:31;;;;;;;4.47;1.40;;;;;;;20.65;41.75;100758.38;5136595;27;20064;-85
2022/09/15 14:23:17;;;;;;;2.97;1.23;;;;;;;20.66;42.01;100775.75;5118289;27;20027;-85
2022/09/15 14:25:44;;;;;;;4.43;1.40;;;;;;;20.43;43.03;100778.06;5136557;27;20471;-85
2022/09/15 14:28:17;;;;;;;4.10;1.42;;;;;;;20.27;43.30;100782.81;5118294;27;20490;-86
2022/09/15 14:30:46;;;;;;;5.43;1.53;;;;;;;20.10;44.07;100777.63;5118107;27;20116;-86
2022/09/15 14:33:19;;;;;;;4.45;1.30;;;;;;;19.97;44.49;100784.56;5136174;27;20107;-86
2022/09/15 14:35:45;;;;;;;4.10;1.27;;;;;;;19.74;45.28;100777.72;5117679;27;20066;-85
2022/09/15 14:38:23;;;;;;;2.03;1.13;;;;;;;19.63;46.00;100779.69;5117657;27;20035;-90
2022/09/15 14:40:51;;;;;;;8.60;1.70;;;;;;;19.44;47.01;100770.31;5117660;27;20038;-85
2022/09/15 14:43:24;;;;;;;3.88;1.30;;;;;;;19.46;47.60;100785.47;5118021;27;20027;-85
2022/09/15 14:45:50;;;;;;;7.20;1.52;;;;;;;19.38;47.65;100782.44;5117478;27;20031;-85
2022/09/15 14:48:16;;;;;;;4.13;1.20;;;;;;;19.26;48.16;100778.03;5135894;27;20034;-86
2022/09/15 14:50:47;;;;;;;3.72;1.35;;;;;;;19.17;49.31;100785.19;5117246;27;20050;-86
2022/09/15 14:53:20;;;;;;;6.07;1.42;;;;;;;19.00;50.02;100795.63;5117808;27;20030;-92
2022/09/15 14:56:16;;;;;;;4.35;1.77;;;;;;;18.80;50.99;100791.72;5135716;27;20027;-85
2022/09/15 14:58:50;;;;;;;6.18;1.40;;;;;;;18.71;51.64;100777.69;5117806;27;20113;-85
2022/09/15 15:01:24;;;;;;;4.63;1.23;;;;;;;18.82;50.46;100796.94;5117732;27;20467;-85
2022/09/15 15:04:08;;;;;;;4.68;1.35;;;;;;;18.86;49.40;100793.41;5135261;27;20085;-85
2022/09/15 15:07:06;;;;;;;4.15;1.55;;;;;;;18.65;49.99;100800.75;5117841;27;20023;-85
2022/09/15 15:09:42;;;;;;;2.83;1.40;;;;;;;18.43;50.91;100791.91;5117261;27;20035;-86
2022/09/15 15:12:39;;;;;;;4.22;1.02;;;;;;;18.36;50.53;100800.38;5117466;27;20027;-85
2022/09/15 15:15:06;;;;;;;3.73;1.03;;;;;;;18.12;50.87;100802.78;5117734;27;20030;-84
2022/09/15 15:17:59;;;;;;;3.97;1.15;;;;;;;17.95;51.03;100798.28;5117777;27;20116;-85
2022/09/15 15:20:29;;;;;;;5.00;1.48;;;;;;;17.77;52.63;100796.75;5135403;27;20050;-84
2022/09/15 15:23:18;;;;;;;3.72;1.00;;;;;;;17.79;51.92;100807.47;5135878;27;20061;-85
2022/09/15 15:25:48;;;;;;;4.38;1.40;;;;;;;17.53;52.41;100799.09;5117119;27;20031;-84
2022/09/15 15:28:36;;;;;;;2.90;0.90;;;;;;;17.42;51.18;100800.94;5117078;27;20481;-84
2022/09/15 15:31:22;;;;;;;2.63;1.20;;;;;;;17.28;51.10;100814.25;5117121;27;20027;-84
2022/09/15 15:33:58;;;;;;;4.63;1.00;;;;;;;17.14;50.37;100810.25;5116873;27;20054;-83
2022/09/15 15:36:25;;;;;;;3.72;1.13;;;;;;;17.00;50.87;100816.16;5117128;27;20366;-84
2022/09/15 15:38:56;;;;;;;5.15;1.10;;;;;;;17.04;51.83;100818.41;5116942;27;20038;-83
2022/09/15 15:41:28;;;;;;;4.50;1.40;;;;;;;16.99;52.43;100814.53;5117152;27;20110;-84
2022/09/15 15:47:19;;;;;;;3.47;0.85;;;;;;;17.06;53.01;100817.06;5040534;27;20160;-84
2022/09/15 15:49:44;;;;;;;2.47;1.02;;;;;;;17.04;54.01;100818.41;5117456;27;20125;-84
2022/09/15 15:52:15;;;;;;;5.93;1.30;;;;;;;17.01;54.34;100826.06;5134868;27;20115;-84
2022/09/15 15:54:41;;;;;;;6.00;1.23;;;;;;;16.96;55.24;100828.75;5116962;27;20073;-84
2022/09/15 15:57:27;;;;;;;9.65;1.27;;;;;;;17.03;55.67;100830.47;5116304;27;20058;-84
2022/09/15 16:00:00;;;;;;;8.50;1.70;;;;;;;16.93;55.95;100834.75;5116549;27;20403;-85
2022/09/15 16:02:26;;;;;;;8.38;1.20;;;;;;;16.84;57.00;100842.59;5116764;27;20420;-84
2022/09/15 16:04:52;;;;;;;4.38;1.27;;;;;;;16.74;57.35;100837.00;5135406;27;20106;-84
2022/09/15 16:07:20;;;;;;;5.60;1.07;;;;;;;16.69;58.11;100838.84;5116536;27;20119;-84
2022/09/15 16:09:47;;;;;;;10.55;1.60;;;;;;;16.61;58.29;100827.25;5115763;27;20042;-83
2022/09/15 16:12:14;;;;;;;4.97;1.13;;;;;;;16.67;59.60;100828.13;5099777;27;20058;-84
2022/09/15 16:14:39;;;;;;;5.82;1.33;;;;;;;16.65;59.46;100828.41;5117204;27;20427;-84
2022/09/15 16:17:05;;;;;;;4.53;1.10;;;;;;;16.67;59.50;100823.47;5099065;27;20145;-84
2022/09/15 16:19:33;;;;;;;5.18;1.73;;;;;;;16.67;60.08;100823.47;5116089;27;20115;-84
2022/09/15 16:22:01;;;;;;;4.07;1.10;;;;;;;16.72;59.93;100822.72;5115763;27;20031;-84
2022/09/15 16:24:29;;;;;;;6.47;1.33;;;;;;;16.76;60.20;100836.72;5116052;28;20031;-84
2022/09/15 16:26:54;;;;;;;4.80;1.33;;;;;;;17.03;59.88;100835.94;5134381;27;20034;-84
2022/09/15 16:29:27;;;;;;;4.13;1.17;;;;;;;17.11;59.23;100835.47;5134908;27;20019;-85
2022/09/15 16:31:55;;;;;;;4.97;1.65;;;;;;;17.01;60.22;100831.53;5117222;28;20130;-84